Time;durP1;ratioP1;P1;durP2;ratioP2;P2;SDS_P1;SDS_P2;PMS_P1;PMS_P2;Temp;Humidity;BMP_temperature;BMP_pressure;BME280_temperature;BME280_humidity;BME280_pressure;Samples;Min_cycle;Max_cycle;Signal;HPM_P1;HPM_P2
2022/01/13 00:01:29;;;;;;;1.23;0.70;;;19.90;47.70;;;;;;5092696;28;20092;-48
2022/01/13 00:03:55;;;;;;;0.98;0.70;;;19.90;47.70;;;;;;5082911;28;20057;-47
2022/01/13 00:06:21;;;;;;;0.68;0.55;;;19.90;47.60;;;;;;5093894;28;20125;-50
2022/01/13 00:08:47;;;;;;;0.88;0.60;;;19.90;47.70;;;;;;5083253;28;20085;-50
2022/01/13 00:11:14;;;;;;;0.90;0.60;;;19.80;47.70;;;;;;5102456;28;20058;-48
2022/01/13 00:13:50;;;;;;;0.90;0.70;;;19.90;47.80;;;;;;5124538;28;20111;-51
2022/01/13 00:16:36;;;;;;;1.20;0.85;;;19.90;48.00;;;;;;5126827;28;20041;-47
2022/01/13 00:21:57;;;;;;;1.48;0.70;;;19.90;47.90;;;;;;5088748;28;20032;-48
2022/01/13 00:24:23;;;;;;;1.17;0.70;;;19.90;47.90;;;;;;5096132;28;20040;-51
2022/01/13 00:26:49;;;;;;;0.77;0.60;;;19.80;47.80;;;;;;5099971;28;20059;-48
2022/01/13 00:29:21;;;;;;;1.52;0.70;;;19.80;47.80;;;;;;5080184;28;20028;-48
2022/01/13 00:31:47;;;;;;;1.70;0.85;;;19.80;47.90;;;;;;5099366;28;20032;-50
2022/01/13 00:34:13;;;;;;;0.90;0.70;;;19.90;48.10;;;;;;5080707;28;20047;-47
2022/01/13 00:36:40;;;;;;;1.60;0.80;;;19.90;48.10;;;;;;5098832;28;20032;-50
2022/01/13 00:39:06;;;;;;;1.02;0.75;;;19.90;48.00;;;;;;5092328;28;20024;-49
2022/01/13 00:41:33;;;;;;;1.08;0.85;;;19.90;47.90;;;;;;5095371;28;20040;-50
2022/01/13 00:44:00;;;;;;;1.17;0.98;;;19.90;47.90;;;;;;5101313;28;20027;-51
2022/01/13 00:46:30;;;;;;;1.40;0.95;;;19.90;47.90;;;;;;5102005;28;20036;-48
2022/01/13 00:48:56;;;;;;;0.82;0.70;;;19.90;48.10;;;;;;5102384;28;20349;-47
2022/01/13 00:51:23;;;;;;;0.98;0.73;;;19.90;48.20;;;;;;5099371;28;20020;-49
2022/01/13 00:53:49;;;;;;;1.58;0.80;;;20.00;48.10;;;;;;5102336;28;20032;-51
2022/01/13 00:56:16;;;;;;;1.73;0.70;;;19.90;48.00;;;;;;5101575;28;20032;-46
2022/01/13 00:58:42;;;;;;;0.93;0.75;;;19.90;48.00;;;;;;5102935;28;20303;-51
2022/01/13 01:01:08;;;;;;;1.30;0.73;;;19.90;47.90;;;;;;5101914;28;20216;-48
2022/01/13 01:03:35;;;;;;;1.45;0.70;;;19.80;47.90;;;;;;5095826;28;20028;-48
2022/01/13 01:06:03;;;;;;;1.38;0.93;;;19.80;48.00;;;;;;5093864;28;20719;-50
2022/01/13 01:08:30;;;;;;;0.77;0.63;;;19.90;48.20;;;;;;5098809;28;20047;-48
2022/01/13 01:10:56;;;;;;;0.82;0.60;;;19.90;48.20;;;;;;5097320;28;20411;-47
2022/01/13 01:13:27;;;;;;;1.30;0.83;;;19.90;48.00;;;;;;5102124;28;20039;-47
2022/01/13 01:15:55;;;;;;;1.30;0.85;;;19.90;48.00;;;;;;5092366;28;20322;-49
2022/01/13 01:22:17;;;;;;;1.30;0.70;;;19.80;47.90;;;;;;5094784;28;20056;-50
2022/01/13 01:26:50;;;;;;;1.08;0.88;;;19.90;48.30;;;;;;5098632;28;20036;-49
2022/01/13 01:29:28;;;;;;;0.93;0.80;;;19.90;48.10;;;;;;5099215;28;20031;-51
2022/01/13 01:31:58;;;;;;;0.82;0.70;;;19.90;48.00;;;;;;5089937;28;20040;-52
2022/01/13 01:36:56;;;;;;;1.73;0.80;;;19.90;48.00;;;;;;5083927;28;20039;-50
2022/01/13 01:39:22;;;;;;;0.88;0.68;;;19.80;48.00;;;;;;5083260;28;20028;-50
2022/01/13 01:41:49;;;;;;;1.83;1.10;;;19.80;48.20;;;;;;5094975;28;20592;-48
2022/01/13 01:44:29;;;;;;;0.80;0.63;;;19.90;48.40;;;;;;5101113;28;20045;-52
2022/01/13 01:46:55;;;;;;;1.35;0.90;;;19.90;48.10;;;;;;5096474;28;20047;-49
2022/01/13 01:49:24;;;;;;;1.45;0.80;;;19.90;48.10;;;;;;5099869;28;20039;-49
2022/01/13 01:51:55;;;;;;;0.90;0.70;;;19.90;48.00;;;;;;5101898;28;20031;-50
2022/01/13 01:54:22;;;;;;;1.73;0.80;;;19.80;48.00;;;;;;5100641;28;20035;-50
2022/01/13 01:56:48;;;;;;;1.65;0.80;;;19.80;48.00;;;;;;5082473;28;20024;-48
2022/01/13 01:59:16;;;;;;;1.05;0.77;;;19.80;48.20;;;;;;5083726;28;20024;-48
2022/01/13 02:01:43;;;;;;;1.38;1.08;;;19.90;48.30;;;;;;5099854;28;20024;-47
2022/01/13 02:04:10;;;;;;;2.58;0.70;;;19.90;48.10;;;;;;5101642;28;20035;-49
2022/01/13 02:06:37;;;;;;;1.10;0.80;;;19.90;48.00;;;;;;5103460;28;20052;-47
2022/01/13 02:09:05;;;;;;;1.20;0.90;;;19.80;48.00;;;;;;5082534;28;20036;-49
2022/01/13 02:11:35;;;;;;;1.42;1.13;;;19.80;48.00;;;;;;5100172;28;20074;-47
2022/01/13 02:14:10;;;;;;;1.88;1.02;;;19.80;48.20;;;;;;5101744;28;20449;-49
2022/01/13 02:16:44;;;;;;;0.88;0.73;;;19.90;48.30;;;;;;5102425;28;20028;-47
2022/01/13 02:19:10;;;;;;;1.83;0.77;;;19.90;48.40;;;;;;5090100;28;20040;-46
2022/01/13 02:21:37;;;;;;;1.27;0.80;;;19.90;48.20;;;;;;5097776;28;20115;-47
2022/01/13 02:24:03;;;;;;;1.98;1.45;;;19.90;48.10;;;;;;5100034;28;20649;-48
2022/01/13 02:26:29;;;;;;;1.02;0.70;;;19.80;48.10;;;;;;5102122;28;20087;-50
2022/01/13 02:28:55;;;;;;;1.55;0.77;;;19.80;48.00;;;;;;5098376;28;20088;-49
2022/01/13 02:31:22;;;;;;;1.40;1.00;;;19.80;48.20;;;;;;5100439;28;20036;-46
2022/01/13 02:33:48;;;;;;;2.50;0.88;;;19.90;48.40;;;;;;5099932;28;20036;-52
2022/01/13 02:36:18;;;;;;;1.33;1.00;;;19.90;48.40;;;;;;5104469;28;20089;-48
2022/01/13 02:38:51;;;;;;;1.20;0.90;;;19.90;48.10;;;;;;5085328;28;20040;-51
2022/01/13 02:41:17;;;;;;;1.00;0.80;;;19.90;48.10;;;;;;5100110;28;20036;-50
2022/01/13 02:43:44;;;;;;;1.40;1.00;;;19.80;48.00;;;;;;5083630;28;20020;-48
2022/01/13 02:47:21;;;;;;;1.67;0.98;;;19.80;48.00;;;;;;5100086;28;20047;-49
2022/01/13 02:49:18;;;;;;;1.67;1.10;;;19.80;48.20;;;;;;5091164;28;20031;-48
2022/01/13 02:51:45;;;;;;;1.85;1.30;;;19.80;48.30;;;;;;5098929;28;20028;-47
2022/01/13 02:54:12;;;;;;;1.08;0.90;;;19.90;48.30;;;;;;5103660;28;20059;-49
2022/01/13 02:56:38;;;;;;;1.40;0.90;;;19.90;48.10;;;;;;5102468;28;20085;-48
2022/01/13 02:59:05;;;;;;;1.00;0.68;;;19.90;48.10;;;;;;5103302;28;20325;-49
2022/01/13 03:01:32;;;;;;;1.10;0.90;;;19.80;48.00;;;;;;5102938;28;20020;-50
2022/01/13 03:04:01;;;;;;;1.50;0.93;;;19.70;48.10;;;;;;5102954;28;20039;-48
2022/01/13 03:06:33;;;;;;;1.50;1.40;;;19.70;48.20;;;;;;5105282;28;20476;-48
2022/01/13 03:08:59;;;;;;;1.50;1.00;;;19.80;48.30;;;;;;5097292;28;20042;-47
2022/01/13 03:11:33;;;;;;;3.27;1.03;;;19.90;48.40;;;;;;5102140;28;20044;-48
2022/01/13 03:13:59;;;;;;;1.38;1.10;;;19.90;48.20;;;;;;5102999;28;20055;-48
2022/01/13 03:16:25;;;;;;;2.05;0.93;;;19.80;48.20;;;;;;5096447;28;20051;-48
2022/01/13 03:18:51;;;;;;;1.60;1.10;;;19.80;48.10;;;;;;5099078;28;20489;-49
2022/01/13 03:21:18;;;;;;;1.88;1.23;;;19.70;48.10;;;;;;5099690;28;20067;-53
2022/01/13 03:23:44;;;;;;;1.60;1.15;;;19.70;48.20;;;;;;5099642;28;20024;-50
2022/01/13 03:26:10;;;;;;;1.77;1.20;;;19.80;48.30;;;;;;5099006;28;20036;-50
2022/01/13 03:28:50;;;;;;;1.70;1.05;;;19.90;48.50;;;;;;5097829;28;20024;-50
2022/01/13 03:31:20;;;;;;;1.30;1.05;;;19.90;48.20;;;;;;5099573;28;20110;-50
2022/01/13 03:33:46;;;;;;;2.22;1.45;;;19.80;48.10;;;;;;5100230;28;20024;-49
2022/01/13 03:36:12;;;;;;;2.15;1.10;;;19.80;48.10;;;;;;5081772;28;20403;-49
2022/01/13 03:38:38;;;;;;;1.13;0.90;;;19.70;48.20;;;;;;5080931;28;20040;-49
2022/01/13 03:41:04;;;;;;;1.67;1.20;;;19.80;48.30;;;;;;5081388;28;20027;-51
2022/01/13 03:43:31;;;;;;;1.33;1.00;;;19.90;48.50;;;;;;5079930;28;20039;-47
2022/01/13 03:45:58;;;;;;;1.63;1.20;;;19.90;48.90;;;;;;5098920;28;20044;-46
2022/01/13 03:48:24;;;;;;;1.70;1.30;;;19.90;48.20;;;;;;5102451;28;20038;-47
2022/01/13 03:50:50;;;;;;;1.58;1.08;;;19.80;48.20;;;;;;5103573;28;20027;-47
2022/01/13 03:53:28;;;;;;;1.90;1.30;;;19.70;48.10;;;;;;5103132;28;20048;-48
2022/01/13 03:56:12;;;;;;;;;;;19.70;48.20;;;;;;5103348;28;20149;-49
2022/01/13 03:59:16;;;;;;;1.67;1.38;;;19.80;48.40;;;;;;5102622;28;19915;-50
2022/01/13 04:01:53;;;;;;;2.17;1.52;;;19.90;48.40;;;;;;5105050;28;20028;-48
2022/01/13 04:04:19;;;;;;;1.70;1.20;;;19.90;48.30;;;;;;5103255;28;20036;-50
2022/01/13 04:06:48;;;;;;;1.67;1.05;;;19.80;48.20;;;;;;5102784;28;20039;-51
2022/01/13 04:09:32;;;;;;;2.17;1.30;;;19.70;48.10;;;;;;5103033;28;20024;-48
2022/01/13 04:12:03;;;;;;;1.85;1.45;;;19.70;48.20;;;;;;5102779;28;20059;-48
2022/01/13 04:14:37;;;;;;;1.60;1.30;;;19.80;48.40;;;;;;5102681;28;20028;-50
2022/01/13 04:17:04;;;;;;;2.30;1.20;;;19.90;48.50;;;;;;5097255;28;20024;-46
2022/01/13 04:19:30;;;;;;;2.57;1.20;;;19.80;48.20;;;;;;5103500;28;20028;-48
2022/01/13 04:21:56;;;;;;;2.10;1.42;;;19.80;48.20;;;;;;5103203;28;20095;-50
2022/01/13 04:24:22;;;;;;;1.90;1.38;;;19.70;48.10;;;;;;5102343;28;20036;-47
2022/01/13 04:26:49;;;;;;;2.45;1.00;;;19.70;48.20;;;;;;5101920;28;20145;-48
2022/01/13 04:29:20;;;;;;;1.90;1.15;;;19.80;48.40;;;;;;5101021;28;20077;-49
2022/01/13 04:31:48;;;;;;;2.00;1.35;;;19.90;48.50;;;;;;5102888;28;20540;-50
2022/01/13 04:34:14;;;;;;;1.63;1.38;;;19.90;48.30;;;;;;5100001;28;20024;-47
2022/01/13 04:36:40;;;;;;;1.67;1.20;;;19.80;48.20;;;;;;5102624;28;20031;-48
2022/01/13 04:39:07;;;;;;;1.50;1.20;;;19.80;48.20;;;;;;5102545;28;20864;-46
2022/01/13 04:41:36;;;;;;;1.75;1.27;;;19.70;48.20;;;;;;5102371;28;20032;-46
2022/01/13 04:44:11;;;;;;;2.20;1.27;;;19.70;48.30;;;;;;5103281;28;20016;-46
2022/01/13 04:46:37;;;;;;;1.55;1.25;;;19.80;48.40;;;;;;5102578;28;20108;-48
2022/01/13 04:49:04;;;;;;;2.22;1.35;;;19.90;48.40;;;;;;5102054;28;20429;-48
2022/01/13 04:51:31;;;;;;;1.58;1.23;;;19.80;48.20;;;;;;5101154;28;20048;-47
2022/01/13 04:53:57;;;;;;;1.60;1.15;;;19.80;48.20;;;;;;5103000;28;20032;-47
2022/01/13 04:56:37;;;;;;;2.50;1.42;;;19.70;48.10;;;;;;5102740;28;20028;-48
2022/01/13 04:59:03;;;;;;;2.30;1.55;;;19.70;48.20;;;;;;5101723;28;20028;-48
2022/01/13 05:01:30;;;;;;;2.45;1.40;;;19.70;48.20;;;;;;5100908;28;20564;-50
2022/01/13 05:03:56;;;;;;;1.98;1.40;;;19.80;48.40;;;;;;5101449;28;20036;-51
2022/01/13 05:06:22;;;;;;;1.83;1.53;;;19.90;48.30;;;;;;5106327;28;20040;-49
2022/01/13 05:08:49;;;;;;;2.40;1.40;;;19.80;48.20;;;;;;5099741;28;20031;-48
2022/01/13 05:11:15;;;;;;;1.33;1.20;;;19.80;48.20;;;;;;5102288;28;20051;-49
2022/01/13 05:13:42;;;;;;;2.03;1.40;;;19.70;48.20;;;;;;5084674;28;20019;-50
2022/01/13 05:16:15;;;;;;;1.83;1.20;;;19.70;48.20;;;;;;5100447;28;20480;-50
2022/01/13 05:18:49;;;;;;;2.22;1.58;;;19.70;48.30;;;;;;5102055;28;20032;-47
2022/01/13 05:21:23;;;;;;;1.75;1.30;;;19.80;48.40;;;;;;5101378;28;20036;-48
2022/01/13 05:23:49;;;;;;;1.98;1.48;;;19.80;48.20;;;;;;5097270;28;20025;-48
2022/01/13 05:26:16;;;;;;;1.98;1.45;;;19.80;48.00;;;;;;5096600;28;20045;-48
2022/01/13 05:28:42;;;;;;;2.25;1.35;;;19.70;48.00;;;;;;5087594;28;20025;-50
2022/01/13 05:31:08;;;;;;;2.92;1.63;;;19.70;48.10;;;;;;5101692;28;20032;-49
2022/01/13 05:33:34;;;;;;;2.33;1.23;;;19.70;48.10;;;;;;5096799;28;20438;-49
2022/01/13 05:36:01;;;;;;;2.53;1.50;;;19.80;48.20;;;;;;5097267;28;20031;-49
2022/01/13 05:38:27;;;;;;;1.98;1.27;;;19.80;48.20;;;;;;5101568;28;20781;-48
2022/01/13 05:40:54;;;;;;;1.98;1.42;;;19.80;48.00;;;;;;5097845;28;20029;-48
2022/01/13 05:43:20;;;;;;;2.17;1.60;;;19.80;48.10;;;;;;5097133;28;20031;-49
2022/01/13 05:45:46;;;;;;;1.90;1.70;;;19.70;48.10;;;;;;5097292;28;20042;-51
2022/01/13 05:48:12;;;;;;;2.50;1.60;;;19.70;48.10;;;;;;5079611;28;20024;-48
2022/01/13 05:50:38;;;;;;;2.00;1.35;;;19.70;48.20;;;;;;5096670;28;20036;-47
2022/01/13 05:53:05;;;;;;;1.83;1.38;;;19.80;48.20;;;;;;5084898;28;20030;-49
2022/01/13 05:55:31;;;;;;;3.03;1.73;;;19.80;48.10;;;;;;5101737;28;20024;-47
2022/01/13 05:57:57;;;;;;;1.52;1.33;;;19.80;48.00;;;;;;5090637;28;20037;-47
2022/01/13 06:00:24;;;;;;;2.13;1.40;;;19.70;48.00;;;;;;5097466;28;20031;-49
2022/01/13 06:02:50;;;;;;;1.67;1.33;;;19.70;48.10;;;;;;5101525;28;20035;-49
2022/01/13 06:05:16;;;;;;;2.35;1.40;;;19.70;48.20;;;;;;5101011;28;20035;-48
2022/01/13 06:07:42;;;;;;;2.70;1.57;;;19.80;48.30;;;;;;5099646;28;20054;-49
2022/01/13 06:10:10;;;;;;;2.47;1.50;;;19.80;48.00;;;;;;5101486;28;20062;-48
2022/01/13 06:12:38;;;;;;;;;;;19.80;48.00;;;;;;5081800;28;20036;-49
2022/01/13 06:15:08;;;;;;;;;;;19.70;48.00;;;;;;5090715;28;19908;-50
2022/01/13 06:17:35;;;;;;;2.30;1.40;;;19.70;48.10;;;;;;5094620;28;20330;-48
2022/01/13 06:20:02;;;;;;;1.80;1.42;;;19.70;48.10;;;;;;5070783;28;20032;-49
2022/01/13 06:22:28;;;;;;;;;;;19.80;48.30;;;;;;5097308;28;20032;-51
2022/01/13 06:24:54;;;;;;;2.17;1.27;;;19.80;48.20;;;;;;5098103;28;19984;-49
2022/01/13 06:27:22;;;;;;;2.00;1.50;;;19.80;48.00;;;;;;5095411;28;20040;-49
2022/01/13 06:29:50;;;;;;;2.05;1.60;;;19.80;48.00;;;;;;5096688;28;20058;-47
2022/01/13 06:32:17;;;;;;;1.80;1.52;;;19.70;48.00;;;;;;5099828;28;20182;-50
2022/01/13 06:34:43;;;;;;;2.05;1.48;;;19.70;48.70;;;;;;5100913;28;20754;-48
2022/01/13 06:37:09;;;;;;;2.22;1.50;;;19.70;48.20;;;;;;5100962;28;20050;-47
2022/01/13 06:39:35;;;;;;;2.13;1.70;;;19.80;48.30;;;;;;5106200;28;20015;-48
2022/01/13 06:42:01;;;;;;;2.80;1.63;;;19.90;48.20;;;;;;5095104;28;20017;-50
2022/01/13 06:44:27;;;;;;;2.22;1.55;;;19.80;48.00;;;;;;5100897;28;20102;-47
2022/01/13 06:46:53;;;;;;;2.67;1.48;;;19.80;48.10;;;;;;5082563;28;20027;-47
2022/01/13 06:49:20;;;;;;;1.98;1.55;;;19.70;48.10;;;;;;5099446;28;20028;-49
2022/01/13 06:51:46;;;;;;;1.90;1.40;;;19.70;48.10;;;;;;5100992;28;20089;-50
2022/01/13 06:54:12;;;;;;;3.30;1.52;;;19.70;48.70;;;;;;5099269;28;20050;-51
2022/01/13 06:56:38;;;;;;;1.98;1.35;;;19.80;48.30;;;;;;5100899;28;20515;-48
2022/01/13 06:59:10;;;;;;;2.15;1.40;;;19.90;48.20;;;;;;5100352;28;20087;-48
2022/01/13 07:01:37;;;;;;;2.05;1.35;;;19.80;48.00;;;;;;5098682;28;20032;-49
2022/01/13 07:04:03;;;;;;;2.28;1.33;;;19.70;48.00;;;;;;5099046;28;20111;-48
2022/01/13 07:06:29;;;;;;;3.33;1.75;;;19.70;48.10;;;;;;5099094;28;20119;-48
2022/01/13 07:08:55;;;;;;;3.05;1.65;;;19.70;48.10;;;;;;5101918;28;20017;-49
2022/01/13 07:11:22;;;;;;;2.65;1.83;;;19.80;48.20;;;;;;5104908;28;20052;-50
2022/01/13 07:13:48;;;;;;;2.13;1.33;;;19.90;48.30;;;;;;5102067;28;20013;-50
2022/01/13 07:16:14;;;;;;;2.22;1.60;;;19.90;48.10;;;;;;5096234;28;20032;-50
2022/01/13 07:18:40;;;;;;;3.08;1.50;;;19.80;48.00;;;;;;5081093;28;20034;-48
2022/01/13 07:21:11;;;;;;;2.83;1.65;;;19.80;48.00;;;;;;5099570;28;20039;-47
2022/01/13 07:23:38;;;;;;;3.25;1.42;;;19.70;48.10;;;;;;5099091;28;20074;-47
2022/01/13 07:26:04;;;;;;;2.70;1.75;;;19.70;48.10;;;;;;5099196;28;20534;-47
2022/01/13 07:28:30;;;;;;;2.67;1.67;;;19.80;48.20;;;;;;5097889;28;20048;-50
2022/01/13 07:30:57;;;;;;;2.20;1.48;;;19.90;48.30;;;;;;5099136;28;20706;-52
2022/01/13 07:33:23;;;;;;;1.85;1.40;;;19.90;48.10;;;;;;5102515;28;20032;-49
2022/01/13 07:35:50;;;;;;;2.15;1.80;;;19.80;48.00;;;;;;5099009;28;20051;-47
2022/01/13 07:38:16;;;;;;;2.10;1.55;;;19.80;48.10;;;;;;5099489;28;20039;-49
2022/01/13 07:40:42;;;;;;;2.20;1.35;;;19.70;48.00;;;;;;5099608;28;20043;-47
2022/01/13 07:43:08;;;;;;;2.35;1.63;;;19.80;48.20;;;;;;5099997;28;20024;-47
2022/01/13 07:45:35;;;;;;;2.10;1.50;;;19.80;48.20;;;;;;5099160;28;20454;-48
2022/01/13 07:48:01;;;;;;;2.00;1.50;;;19.90;48.30;;;;;;5098792;28;20028;-49
2022/01/13 07:50:27;;;;;;;2.80;1.60;;;19.90;48.10;;;;;;5100271;28;20534;-48
2022/01/13 07:52:53;;;;;;;2.20;1.65;;;19.80;48.00;;;;;;5099754;28;20039;-48
2022/01/13 07:55:19;;;;;;;2.25;1.60;;;19.80;48.10;;;;;;5101159;28;20579;-49
2022/01/13 07:57:45;;;;;;;2.40;1.55;;;19.80;48.10;;;;;;5096262;28;20043;-47
2022/01/13 08:00:12;;;;;;;2.20;1.50;;;19.80;48.20;;;;;;5098147;28;20028;-48
2022/01/13 08:02:39;;;;;;;2.28;1.58;;;19.80;48.20;;;;;;5099361;28;20038;-48
2022/01/13 08:05:06;;;;;;;1.48;1.20;;;19.90;48.30;;;;;;5099170;28;20489;-47
2022/01/13 08:07:32;;;;;;;2.10;1.45;;;19.90;48.10;;;;;;5097127;28;20024;-49
2022/01/13 08:09:58;;;;;;;2.20;1.70;;;19.80;48.60;;;;;;5099535;28;20032;-49
2022/01/13 08:12:25;;;;;;;2.22;1.27;;;19.80;48.00;;;;;;5099147;28;20047;-49
2022/01/13 08:14:51;;;;;;;2.03;1.42;;;19.70;48.10;;;;;;5098488;28;20035;-48
2022/01/13 08:19:45;;;;;;;1.70;1.10;;;19.80;48.10;;;;;;5099286;28;20024;-48
2022/01/13 08:20:04;;;;;;;2.78;1.70;;;19.80;48.20;;;;;;5099007;28;20036;-48
2022/01/13 08:22:30;;;;;;;2.17;1.50;;;19.90;48.20;;;;;;5097757;28;20031;-48
2022/01/13 08:24:57;;;;;;;2.40;1.50;;;19.90;48.00;;;;;;5099178;28;20492;-50
2022/01/13 08:27:23;;;;;;;1.83;1.38;;;19.80;48.00;;;;;;5099215;28;20040;-49
2022/01/13 08:29:49;;;;;;;2.22;1.52;;;19.80;47.90;;;;;;5098752;28;20492;-47
2022/01/13 08:32:15;;;;;;;2.42;1.90;;;19.70;48.00;;;;;;5098353;28;20031;-49
2022/01/13 08:34:41;;;;;;;3.38;1.58;;;19.80;48.10;;;;;;5100508;28;20068;-49
2022/01/13 08:37:07;;;;;;;2.13;1.75;;;19.90;48.20;;;;;;5102972;28;20043;-48
2022/01/13 08:39:39;;;;;;;3.38;1.70;;;19.90;48.00;;;;;;5103253;28;20055;-47
2022/01/13 08:42:05;;;;;;;2.72;1.60;;;19.90;47.90;;;;;;5102651;28;20032;-48
2022/01/13 08:44:31;;;;;;;2.63;1.63;;;19.80;47.90;;;;;;5103627;28;20780;-49
2022/01/13 08:46:57;;;;;;;2.38;1.73;;;19.70;48.00;;;;;;5103223;28;20073;-47
2022/01/13 08:49:23;;;;;;;2.33;1.60;;;19.70;48.00;;;;;;5103159;28;20093;-50
2022/01/13 08:51:51;;;;;;;2.00;1.45;;;19.80;48.10;;;;;;5102543;28;20077;-49
2022/01/13 08:54:21;;;;;;;2.60;1.60;;;19.90;48.20;;;;;;5103170;28;20035;-48
2022/01/13 08:56:47;;;;;;;2.22;1.40;;;19.90;48.00;;;;;;5102156;28;20028;-48
2022/01/13 08:59:13;;;;;;;1.80;1.45;;;19.90;48.00;;;;;;5084148;28;20032;-48
2022/01/13 09:01:39;;;;;;;2.33;1.40;;;19.80;47.90;;;;;;5117928;28;20032;-48
2022/01/13 09:04:06;;;;;;;1.80;1.35;;;19.70;47.90;;;;;;5102387;28;20020;-50
2022/01/13 09:06:32;;;;;;;2.22;1.70;;;19.80;48.00;;;;;;5101994;28;20048;-48
2022/01/13 09:08:58;;;;;;;2.17;1.67;;;19.90;48.10;;;;;;5102667;28;20027;-49
2022/01/13 09:11:24;;;;;;;2.90;1.70;;;19.90;48.10;;;;;;5100658;28;20138;-49
2022/01/13 09:13:56;;;;;;;2.97;1.80;;;19.90;48.00;;;;;;5102662;28;20024;-50
2022/01/13 09:16:24;;;;;;;2.60;1.60;;;19.90;47.90;;;;;;5102580;28;20031;-47
2022/01/13 09:21:23;;;;;;;2.35;1.65;;;19.80;48.00;;;;;;5102231;28;20024;-51
2022/01/13 09:23:49;;;;;;;2.97;1.90;;;19.90;48.00;;;;;;5101125;28;20047;-48
2022/01/13 09:26:15;;;;;;;2.40;1.52;;;19.90;48.00;;;;;;5101247;28;20454;-49
2022/01/13 09:28:42;;;;;;;2.17;1.67;;;19.90;47.90;;;;;;5101763;28;20035;-51
2022/01/13 09:31:08;;;;;;;4.13;1.92;;;19.90;47.80;;;;;;5101336;28;20040;-49
2022/01/13 09:33:34;;;;;;;2.28;1.42;;;19.80;47.80;;;;;;5101178;28;20024;-48
2022/01/13 09:36:01;;;;;;;2.75;1.67;;;19.80;47.90;;;;;;5101415;28;20023;-52
2022/01/13 09:38:27;;;;;;;3.08;1.90;;;19.80;47.90;;;;;;5102522;28;20035;-49
2022/01/13 09:40:53;;;;;;;2.65;1.80;;;19.90;48.00;;;;;;5100701;28;20024;-48
2022/01/13 09:43:23;;;;;;;2.47;1.60;;;19.90;48.00;;;;;;5102060;28;20039;-49
2022/01/13 09:45:50;;;;;;;2.28;1.60;;;19.90;47.90;;;;;;5099724;28;20040;-48
2022/01/13 09:48:16;;;;;;;2.70;1.73;;;19.90;47.90;;;;;;5101525;28;20591;-49
2022/01/13 09:50:43;;;;;;;2.67;1.90;;;19.80;47.80;;;;;;5101646;28;20092;-48
2022/01/13 09:53:09;;;;;;;3.60;2.08;;;19.80;47.90;;;;;;5100613;28;20122;-53
2022/01/13 09:55:35;;;;;;;3.03;1.83;;;19.80;47.90;;;;;;5101297;28;20039;-49
2022/01/13 09:58:05;;;;;;;2.42;1.48;;;19.90;48.00;;;;;;5101144;28;20110;-50
2022/01/13 10:00:31;;;;;;;2.30;1.58;;;20.00;47.90;;;;;;5099251;28;20072;-51
2022/01/13 10:02:59;;;;;;;2.78;1.77;;;19.90;47.80;;;;;;5101300;28;20085;-47
2022/01/13 10:05:25;;;;;;;2.53;1.85;;;19.90;47.80;;;;;;5100845;28;20031;-48
2022/01/13 10:07:52;;;;;;;3.00;1.88;;;19.80;47.80;;;;;;5100602;28;20728;-50
2022/01/13 10:10:20;;;;;;;3.25;1.80;;;19.80;47.90;;;;;;5101528;28;20116;-52
2022/01/13 10:12:48;;;;;;;2.50;1.63;;;19.90;48.00;;;;;;5100561;28;20055;-51
2022/01/13 10:18:05;;;;;;;2.63;1.98;;;20.00;48.00;;;;;;5100199;28;20065;-52
2022/01/13 10:20:33;;;;;;;2.90;1.80;;;19.90;47.80;;;;;;5102007;28;20058;-50
2022/01/13 10:23:10;;;;;;;2.88;1.75;;;19.80;47.80;;;;;;5100615;28;20047;-50
2022/01/13 10:25:37;;;;;;;2.80;2.00;;;19.80;47.90;;;;;;5099705;28;20381;-51
2022/01/13 10:28:18;;;;;;;2.38;1.80;;;19.80;47.90;;;;;;5101081;28;20032;-52
2022/01/13 10:30:45;;;;;;;3.35;1.90;;;19.90;48.00;;;;;;5099761;28;20028;-53
2022/01/13 10:33:23;;;;;;;2.72;1.73;;;20.00;48.10;;;;;;5085223;28;20115;-51
2022/01/13 10:35:51;;;;;;;3.38;1.95;;;19.90;47.90;;;;;;5083385;28;20169;-51
2022/01/13 10:38:17;;;;;;;3.03;1.88;;;19.90;47.90;;;;;;5101321;28;20024;-49
2022/01/13 10:40:47;;;;;;;2.17;1.65;;;19.80;47.80;;;;;;5101077;28;20032;-52
2022/01/13 10:43:26;;;;;;;2.60;1.88;;;19.80;48.00;;;;;;5082566;28;20042;-48
2022/01/13 10:45:54;;;;;;;2.85;1.75;;;19.90;48.00;;;;;;5096708;28;20024;-51
2022/01/13 10:48:22;;;;;;;3.28;1.80;;;20.00;48.00;;;;;;5098399;28;20039;-52
2022/01/13 10:50:58;;;;;;;3.38;1.98;;;20.00;47.90;;;;;;5099725;28;20032;-50
2022/01/13 10:53:29;;;;;;;2.60;1.77;;;19.90;47.90;;;;;;5100405;28;20035;-52
2022/01/13 10:55:58;;;;;;;3.58;2.17;;;19.90;47.80;;;;;;5100423;28;20500;-48
2022/01/13 10:58:32;;;;;;;3.40;1.92;;;19.80;47.80;;;;;;5082527;28;20465;-47
2022/01/13 11:00:59;;;;;;;2.72;1.88;;;19.90;48.00;;;;;;5100625;28;20038;-51
2022/01/13 11:03:27;;;;;;;2.28;1.67;;;19.90;48.00;;;;;;5101474;28;20103;-48
2022/01/13 11:06:00;;;;;;;3.40;1.90;;;20.00;48.00;;;;;;5099733;28;20042;-53
2022/01/13 11:08:27;;;;;;;2.85;2.00;;;19.90;47.90;;;;;;5099542;28;20016;-48
2022/01/13 11:10:56;;;;;;;3.15;2.10;;;19.90;47.80;;;;;;5100148;28;20504;-48
2022/01/13 11:13:24;;;;;;;2.83;1.80;;;19.80;47.80;;;;;;5100275;28;20036;-47
2022/01/13 11:15:55;;;;;;;2.78;1.90;;;19.80;47.90;;;;;;5100014;28;20020;-48
2022/01/13 11:18:26;;;;;;;3.63;2.00;;;19.90;48.00;;;;;;5098841;28;20023;-48
2022/01/13 11:20:52;;;;;;;2.83;1.80;;;19.90;48.00;;;;;;5099683;28;20054;-48
2022/01/13 11:23:19;;;;;;;3.30;2.10;;;20.00;48.00;;;;;;5083170;28;20053;-48
2022/01/13 11:25:46;;;;;;;2.47;1.80;;;19.90;47.90;;;;;;5081834;28;20032;-48
2022/01/13 11:28:12;;;;;;;3.42;1.90;;;19.90;47.90;;;;;;5101892;28;20036;-50
2022/01/13 11:30:38;;;;;;;2.22;1.90;;;19.80;47.80;;;;;;5098807;28;20047;-50
2022/01/13 11:33:05;;;;;;;2.97;2.05;;;19.90;48.00;;;;;;5100959;28;20039;-47
2022/01/13 11:35:35;;;;;;;2.28;1.73;;;19.90;48.00;;;;;;5099326;28;20028;-48
2022/01/13 11:38:06;;;;;;;4.22;1.90;;;20.00;48.10;;;;;;5082035;28;20026;-50
2022/01/13 11:40:34;;;;;;;3.25;1.75;;;20.00;47.90;;;;;;5098921;28;20028;-48
2022/01/13 11:43:02;;;;;;;2.75;1.90;;;19.90;47.90;;;;;;5082745;28;20386;-49
2022/01/13 11:45:28;;;;;;;3.00;2.00;;;19.90;47.90;;;;;;5099913;28;20032;-48
2022/01/13 11:48:25;;;;;;;2.40;1.90;;;19.80;48.00;;;;;;5101331;28;20024;-48
2022/01/13 11:50:55;;;;;;;3.08;1.98;;;19.90;48.00;;;;;;5098701;28;20024;-50
2022/01/13 11:53:30;;;;;;;3.13;1.98;;;20.00;48.00;;;;;;5100297;28;20025;-50
2022/01/13 11:56:04;;;;;;;2.40;1.80;;;20.00;48.00;;;;;;5097105;28;20028;-50
2022/01/13 11:58:33;;;;;;;3.03;1.80;;;20.00;47.90;;;;;;5098211;28;20028;-49
2022/01/13 12:01:29;;;;;;;2.53;1.73;;;19.90;47.90;;;;;;5081285;28;20032;-50
2022/01/13 12:04:00;;;;;;;2.47;1.65;;;19.80;47.90;;;;;;5084524;28;20039;-47
2022/01/13 12:06:41;;;;;;;3.00;2.05;;;19.90;48.00;;;;;;5100114;28;20467;-48
2022/01/13 12:09:30;;;;;;;2.42;1.88;;;19.90;48.00;;;;;;5100107;28;20472;-49
2022/01/13 12:11:57;;;;;;;3.25;2.25;;;20.00;48.10;;;;;;5089801;28;20048;-47
2022/01/13 12:14:23;;;;;;;3.95;1.90;;;20.00;48.00;;;;;;5106528;28;20035;-50
2022/01/13 12:16:53;;;;;;;3.10;2.03;;;20.00;47.90;;;;;;5103210;28;20028;-49
2022/01/13 12:19:35;;;;;;;3.90;1.95;;;19.90;47.90;;;;;;5102809;28;20036;-47
2022/01/13 12:22:05;;;;;;;2.65;2.00;;;19.80;47.90;;;;;;5102200;28;20032;-51
2022/01/13 12:24:45;;;;;;;3.28;1.85;;;19.90;48.00;;;;;;5103557;28;20028;-51
2022/01/13 12:27:11;;;;;;;2.63;1.83;;;19.90;48.00;;;;;;5102641;28;20042;-48
2022/01/13 12:29:46;;;;;;;2.65;2.00;;;20.00;48.00;;;;;;5103479;28;20054;-49
2022/01/13 12:32:14;;;;;;;3.03;1.90;;;20.00;48.00;;;;;;5103506;28;20028;-48
2022/01/13 12:34:45;;;;;;;2.55;1.80;;;19.90;47.90;;;;;;5103586;28;20120;-48
2022/01/13 12:37:11;;;;;;;3.03;2.00;;;19.80;47.90;;;;;;5100099;28;20070;-47
2022/01/13 12:39:48;;;;;;;2.67;1.92;;;19.80;48.00;;;;;;5102822;28;20087;-49
2022/01/13 12:42:21;;;;;;;3.72;2.08;;;19.90;48.00;;;;;;5102162;28;20036;-51
2022/01/13 12:47:32;;;;;;;2.85;1.70;;;20.00;48.00;;;;;;5102914;28;20055;-49
2022/01/13 12:49:58;;;;;;;2.50;1.70;;;20.00;48.00;;;;;;5084635;28;20016;-49
2022/01/13 12:52:26;;;;;;;3.30;1.85;;;19.90;47.90;;;;;;5102558;28;20043;-48
2022/01/13 12:54:52;;;;;;;3.10;1.92;;;19.80;47.90;;;;;;5101279;28;20016;-47
2022/01/13 12:57:21;;;;;;;2.72;1.77;;;19.90;48.00;;;;;;5084585;28;20055;-50
2022/01/13 12:59:48;;;;;;;2.88;2.00;;;19.90;48.00;;;;;;5101370;28;20059;-49
2022/01/13 13:02:14;;;;;;;3.03;1.75;;;20.00;48.00;;;;;;5084950;28;20032;-49
2022/01/13 13:04:40;;;;;;;2.70;1.90;;;20.00;48.00;;;;;;5098366;28;20050;-49
2022/01/13 13:07:06;;;;;;;2.92;1.90;;;19.90;47.90;;;;;;5102719;28;20609;-52
2022/01/13 13:09:33;;;;;;;2.65;1.92;;;19.90;48.50;;;;;;5102894;28;20027;-48
2022/01/13 13:12:02;;;;;;;2.80;1.70;;;19.80;48.00;;;;;;5102905;28;20051;-48
2022/01/13 13:17:34;;;;;;;2.53;1.90;;;19.90;48.00;;;;;;5102157;28;20034;-48